createdAt,value
2023-05-20T00:01:50.998Z,97185.19
2023-05-20T00:04:17.816Z,97181.03
2023-05-20T00:06:44.862Z,97183.44
2023-05-20T00:09:11.461Z,97182.28
2023-05-20T00:11:38.410Z,97181.03
2023-05-20T00:14:05.123Z,97178.84
2023-05-20T00:16:31.934Z,97180.28
2023-05-20T00:18:58.662Z,97176.44
2023-05-20T00:21:25.426Z,97170.28
2023-05-20T00:23:52.087Z,97170.13
2023-05-20T00:26:19.232Z,97169.81
2023-05-20T00:28:52.186Z,97169.09
2023-05-20T00:31:18.913Z,97163.88
2023-05-20T00:33:45.723Z,97157.53
2023-05-20T00:36:12.546Z,97155.94
2023-05-20T00:38:39.495Z,97151.03
2023-05-20T00:41:06.213Z,97158.09
2023-05-20T00:43:32.859Z,97156.16
2023-05-20T00:46:00.698Z,97149.91
2023-05-20T00:48:32.794Z,97151.19
2023-05-20T00:50:59.486Z,97139.41
2023-05-20T00:53:26.248Z,97147.25
2023-05-20T00:55:52.952Z,97153.22
2023-05-20T00:58:19.669Z,97152.38
2023-05-20T01:00:46.741Z,97151.72
2023-05-20T01:03:13.534Z,97154.72
2023-05-20T01:05:42.248Z,97142.25
2023-05-20T01:08:09.525Z,97136.31
2023-05-20T01:10:39.758Z,97139.22
2023-05-20T01:13:10.192Z,97136.50
2023-05-20T01:15:38.538Z,97132.88
2023-05-20T01:18:08.911Z,97126.50
2023-05-20T01:20:37.930Z,97125.63
2023-05-20T01:23:04.560Z,97124.38
2023-05-20T01:25:31.370Z,97127.44
2023-05-20T01:27:58.230Z,97122.06
2023-05-20T01:30:31.183Z,97122.28
2023-05-20T01:33:01.860Z,97124.22
2023-05-20T01:35:30.443Z,97124.78
2023-05-20T01:37:58.718Z,97119.94
2023-05-20T01:40:26.195Z,97111.78
2023-05-20T01:42:55.138Z,97108.53
2023-05-20T01:45:24.479Z,97107.66
2023-05-20T01:47:51.262Z,97111.63
2023-05-20T01:50:18.179Z,97108.03
2023-05-20T01:52:44.985Z,97099.88
2023-05-20T01:55:11.748Z,97103.13
2023-05-20T01:57:38.448Z,97099.53
2023-05-20T02:00:06.913Z,97104.97
2023-05-20T02:02:40.147Z,97099.38
2023-05-20T02:05:10.332Z,97101.38
2023-05-20T02:07:37.151Z,97102.81
2023-05-20T02:10:04.352Z,97099.88
2023-05-20T02:12:31.188Z,97103.28
2023-05-20T02:14:57.877Z,97096.03
2023-05-20T02:17:24.570Z,97098.53
2023-05-20T02:19:51.485Z,97096.28
2023-05-20T02:22:18.464Z,97094.63
2023-05-20T02:24:45.133Z,97096.56
2023-05-20T02:27:11.975Z,97100.38
2023-05-20T02:29:38.638Z,97100.16
2023-05-20T02:32:05.760Z,97092.56
2023-05-20T02:34:32.965Z,97096.09
2023-05-20T02:36:59.843Z,97095.88
2023-05-20T02:39:28.461Z,97086.81
2023-05-20T02:41:55.324Z,97095.66
2023-05-20T02:44:21.965Z,97090.53
2023-05-20T02:46:48.681Z,97090.63
2023-05-20T02:49:15.562Z,97093.09
2023-05-20T02:51:42.370Z,97091.28
2023-05-20T02:54:09.022Z,97092.91
2023-05-20T02:56:35.757Z,97098.63
2023-05-20T02:59:04.806Z,97096.41
2023-05-20T03:01:33.883Z,97095.13
2023-05-20T03:04:00.709Z,97082.00
2023-05-20T03:06:27.608Z,97077.44
2023-05-20T03:08:54.723Z,97079.19
2023-05-20T03:11:21.938Z,97079.13
2023-05-20T03:13:48.968Z,97087.34
2023-05-20T03:16:17.288Z,97073.81
2023-05-20T03:18:44.728Z,97077.00
2023-05-20T03:21:11.677Z,97076.03
2023-05-20T03:23:38.396Z,97081.66
2023-05-20T03:26:06.850Z,97080.69
2023-05-20T03:28:33.882Z,97078.41
2023-05-20T03:31:02.581Z,97081.97
2023-05-20T03:33:31.499Z,97078.41
2023-05-20T03:35:58.541Z,97081.84
2023-05-20T03:38:25.303Z,97081.47
2023-05-20T03:40:52.067Z,97076.41
2023-05-20T03:43:18.816Z,97076.56
2023-05-20T03:45:45.636Z,97079.03
2023-05-20T03:48:13.912Z,97076.03
2023-05-20T03:50:40.773Z,97072.13
2023-05-20T03:53:07.547Z,97069.97
2023-05-20T03:55:39.545Z,97065.41
2023-05-20T03:58:06.934Z,97065.00
2023-05-20T04:00:34.035Z,97067.00
2023-05-20T04:03:01.432Z,97065.56
2023-05-20T04:05:28.304Z,97070.03
2023-05-20T04:07:57.490Z,97070.31
2023-05-20T04:10:25.056Z,97068.09
2023-05-20T04:12:52.540Z,97072.25
2023-05-20T04:15:20.223Z,97073.53
2023-05-20T04:17:53.168Z,97074.72
2023-05-20T04:20:20.073Z,97065.56
2023-05-20T04:22:48.317Z,97070.03
2023-05-20T04:25:15.236Z,97074.06
2023-05-20T04:27:41.921Z,97067.25
2023-05-20T04:30:10.520Z,97062.81
2023-05-20T04:32:40.140Z,97055.78
2023-05-20T04:35:12.074Z,97068.47
2023-05-20T04:37:42.510Z,97055.13
2023-05-20T04:40:12.603Z,97053.41
2023-05-20T04:42:39.811Z,97045.13
2023-05-20T04:45:08.839Z,97057.34
2023-05-20T04:47:38.955Z,97059.78
2023-05-20T04:50:13.634Z,97059.94
2023-05-20T04:52:45.487Z,97046.25
2023-05-20T04:55:12.601Z,97052.00
2023-05-20T04:57:42.272Z,97047.41
2023-05-20T05:00:11.276Z,97052.72
2023-05-20T05:02:39.071Z,97050.41
2023-05-20T05:05:06.791Z,97047.09
2023-05-20T05:07:33.797Z,97044.66
2023-05-20T05:10:01.134Z,97040.38
2023-05-20T05:12:30.198Z,97044.09
2023-05-20T05:14:58.862Z,97035.63
2023-05-20T05:17:28.837Z,97033.06
2023-05-20T05:19:57.271Z,97030.75
2023-05-20T05:22:24.563Z,97022.84
2023-05-20T05:24:52.344Z,97026.69
2023-05-20T05:27:19.094Z,97021.66
2023-05-20T05:29:45.828Z,97021.06
2023-05-20T05:32:12.721Z,97017.88
2023-05-20T05:34:39.479Z,97016.25
2023-05-20T05:37:06.326Z,97017.06
2023-05-20T05:39:34.562Z,97015.03
2023-05-20T05:42:01.411Z,97023.19
2023-05-20T05:44:28.322Z,97021.78
2023-05-20T05:46:55.334Z,97020.06
2023-05-20T05:49:22.280Z,97023.28
2023-05-20T05:51:50.655Z,97020.72
2023-05-20T05:54:17.579Z,97022.59
2023-05-20T05:56:44.388Z,97029.03
2023-05-20T05:59:11.237Z,97025.00
2023-05-20T06:01:38.142Z,97019.59
2023-05-20T06:04:05.200Z,97025.28
2023-05-20T06:06:32.196Z,97018.97
2023-05-20T06:08:58.836Z,97024.78
2023-05-20T06:11:26.609Z,97018.50
2023-05-20T06:13:53.393Z,97028.69
2023-05-20T06:16:20.208Z,97022.34
2023-05-20T06:18:47.264Z,97013.94
2023-05-20T06:21:14.090Z,97013.47
2023-05-20T06:23:40.914Z,97023.88
2023-05-20T06:26:11.182Z,97013.03
2023-05-20T06:28:39.463Z,97019.06
2023-05-20T06:31:06.476Z,97008.22
2023-05-20T06:33:34.958Z,96998.81
2023-05-20T06:36:07.004Z,96998.53
2023-05-20T06:38:33.785Z,97006.28
2023-05-20T06:41:01.374Z,97004.00
2023-05-20T06:43:29.178Z,97012.47
2023-05-20T06:46:09.559Z,97010.25
2023-05-20T06:48:39.461Z,97013.31
2023-05-20T06:51:10.305Z,97007.28
2023-05-20T06:53:38.513Z,97011.69
2023-05-20T06:56:05.897Z,97011.25
2023-05-20T06:58:32.839Z,97011.44
2023-05-20T07:00:59.730Z,97008.84
2023-05-20T07:03:26.907Z,97017.44
2023-05-20T07:05:53.733Z,97015.84
2023-05-20T07:08:21.276Z,97013.81
2023-05-20T07:10:48.306Z,97002.91
2023-05-20T07:13:18.716Z,97004.09
2023-05-20T07:15:48.687Z,97006.66
2023-05-20T07:18:16.377Z,97005.72
2023-05-20T07:20:45.842Z,97011.78
2023-05-20T07:23:25.049Z,97018.69
2023-05-20T07:25:54.317Z,97022.72
2023-05-20T07:28:22.718Z,97022.78
2023-05-20T07:30:50.536Z,97023.25
2023-05-20T07:33:23.702Z,97014.31
2023-05-20T07:35:50.457Z,97010.66
2023-05-20T07:38:17.330Z,96999.78
2023-05-20T07:40:46.535Z,96996.69
2023-05-20T07:43:13.384Z,96992.06
2023-05-20T07:45:40.429Z,96986.00
2023-05-20T07:48:08.960Z,96989.44
2023-05-20T07:50:36.733Z,96977.91
2023-05-20T07:53:04.282Z,96985.88
2023-05-20T07:55:37.107Z,96987.22
2023-05-20T07:58:05.387Z,96987.53
2023-05-20T08:00:34.322Z,96988.44
2023-05-20T08:03:04.345Z,96984.56
2023-05-20T08:05:42.227Z,96981.53
2023-05-20T08:08:10.567Z,96981.13
2023-05-20T08:10:49.033Z,96983.44
2023-05-20T08:13:15.801Z,96984.56
2023-05-20T08:15:42.682Z,96990.72
2023-05-20T08:18:09.735Z,96979.38
2023-05-20T08:20:36.669Z,96981.09
2023-05-20T08:23:03.405Z,96977.97
2023-05-20T08:25:30.855Z,96966.47
2023-05-20T08:27:58.204Z,96972.41
2023-05-20T08:30:25.514Z,96969.22
2023-05-20T08:32:53.002Z,96969.22
2023-05-20T08:35:23.164Z,96976.25
2023-05-20T08:37:51.355Z,96976.09
2023-05-20T08:40:18.149Z,96979.59
2023-05-20T08:42:44.945Z,96975.56
2023-05-20T08:45:16.358Z,96976.66
2023-05-20T08:47:43.935Z,96979.22
2023-05-20T08:50:12.288Z,96979.84
2023-05-20T08:52:46.583Z,96982.44
2023-05-20T08:55:26.832Z,96980.13
2023-05-20T08:57:54.686Z,96978.09
2023-05-20T09:00:27.192Z,96972.59
2023-05-20T09:02:54.885Z,96968.69
2023-05-20T09:05:22.778Z,96971.63
2023-05-20T09:07:49.543Z,96969.13
2023-05-20T09:10:16.591Z,96972.91
2023-05-20T09:12:43.512Z,96970.84
2023-05-20T09:15:10.452Z,96976.19
2023-05-20T09:17:38.276Z,96984.63
2023-05-20T09:20:09.896Z,96982.41
2023-05-20T09:22:37.654Z,96977.81
2023-05-20T09:25:05.223Z,96974.66
2023-05-20T09:27:32.009Z,96973.66
2023-05-20T09:29:58.752Z,96977.59
2023-05-20T09:32:28.271Z,96977.00
2023-05-20T09:34:55.040Z,96967.16
2023-05-20T09:37:22.193Z,96964.47
2023-05-20T09:40:05.920Z,96966.88
2023-05-20T09:42:41.584Z,96964.53
2023-05-20T09:45:09.541Z,96969.72
2023-05-20T09:47:41.001Z,96959.84
2023-05-20T09:50:09.165Z,96968.66
2023-05-20T09:52:37.398Z,96959.09
2023-05-20T09:55:05.816Z,96963.13
2023-05-20T09:57:36.578Z,96952.44
2023-05-20T10:00:08.674Z,96951.53
2023-05-20T10:02:46.151Z,96958.75
2023-05-20T10:05:20.442Z,96950.41
2023-05-20T10:08:11.844Z,96955.41
2023-05-20T10:10:48.505Z,96941.13
2023-05-20T10:13:38.398Z,96942.63
2023-05-20T10:16:18.036Z,96943.94
2023-05-20T10:18:56.487Z,96934.38
2023-05-20T10:21:24.649Z,96929.19
2023-05-20T10:23:51.958Z,96930.19
2023-05-20T10:26:19.152Z,96928.72
2023-05-20T10:28:46.780Z,96920.97
2023-05-20T10:31:24.235Z,96914.47
2023-05-20T10:33:53.216Z,96911.09
2023-05-20T10:36:27.854Z,96917.22
2023-05-20T10:38:59.232Z,96919.63
2023-05-20T10:41:27.404Z,96923.22
2023-05-20T10:44:03.450Z,96922.28
2023-05-20T10:46:41.946Z,96931.94
2023-05-20T10:49:25.381Z,96928.06
2023-05-20T10:51:54.371Z,96924.63
2023-05-20T10:54:22.071Z,96926.75
2023-05-20T10:56:55.464Z,96918.28
2023-05-20T10:59:22.464Z,96922.41
2023-05-20T11:01:49.341Z,96916.56
2023-05-20T11:04:17.459Z,96918.50
2023-05-20T11:06:53.541Z,96910.13
2023-05-20T11:09:20.270Z,96917.47
2023-05-20T11:11:46.961Z,96920.44
2023-05-20T11:14:15.118Z,96924.00
2023-05-20T11:16:42.499Z,96910.59
2023-05-20T11:19:14.366Z,96912.91
2023-05-20T11:21:45.172Z,96914.94
2023-05-20T11:24:12.848Z,96916.69
2023-05-20T11:26:40.221Z,96917.47
2023-05-20T11:29:07.771Z,96919.63
2023-05-20T11:31:34.487Z,96910.06
2023-05-20T11:34:01.665Z,96907.72
2023-05-20T11:36:28.964Z,96910.94
2023-05-20T11:38:57.848Z,96899.03
2023-05-20T11:41:25.434Z,96901.53
2023-05-20T11:43:58.063Z,96915.13
2023-05-20T11:46:25.055Z,96915.06
2023-05-20T11:48:54.016Z,96915.63
2023-05-20T11:51:39.508Z,96917.69
2023-05-20T11:54:08.001Z,96911.81
2023-05-20T11:56:39.021Z,96901.91
2023-05-20T11:59:06.615Z,96893.00
2023-05-20T12:01:37.737Z,96904.56
2023-05-20T12:04:08.570Z,96895.34
2023-05-20T12:06:37.380Z,96902.84
2023-05-20T12:09:07.081Z,96894.66
2023-05-20T12:11:38.012Z,96887.44
2023-05-20T12:14:04.698Z,96888.94
2023-05-20T12:16:33.196Z,96884.38
2023-05-20T12:19:00.670Z,96881.56
2023-05-20T12:21:29.012Z,96888.28
2023-05-20T12:23:58.738Z,96884.69
2023-05-20T12:26:26.859Z,96876.00
2023-05-20T12:28:53.999Z,96873.84
2023-05-20T12:31:21.120Z,96868.88
2023-05-20T12:33:47.858Z,96869.94
2023-05-20T12:36:14.945Z,96871.09
2023-05-20T12:38:41.771Z,96870.97
2023-05-20T12:41:08.561Z,96867.03
2023-05-20T12:43:36.982Z,96873.31
2023-05-20T12:46:04.293Z,96853.31
2023-05-20T12:48:30.946Z,96862.19
2023-05-20T12:50:57.622Z,96859.28
2023-05-20T12:53:24.265Z,96867.28
2023-05-20T12:55:51.056Z,96862.41
2023-05-20T12:58:17.782Z,96854.81
2023-05-20T13:00:44.551Z,96852.38
2023-05-20T13:03:11.435Z,96854.06
2023-05-20T13:05:38.408Z,96846.63
2023-05-20T13:08:05.389Z,96852.06
2023-05-20T13:10:33.194Z,96853.63
2023-05-20T13:13:00.093Z,96851.25
2023-05-20T13:15:26.830Z,96852.72
2023-05-20T13:17:54.361Z,96860.38
2023-05-20T13:20:21.532Z,96854.22
2023-05-20T13:22:50.178Z,96836.50
2023-05-20T13:25:17.101Z,96844.50
2023-05-20T13:27:43.948Z,96848.13
2023-05-20T13:30:10.978Z,96843.13
2023-05-20T13:32:37.998Z,96846.88
2023-05-20T13:35:05.125Z,96843.59
2023-05-20T13:37:31.939Z,96846.25
2023-05-20T13:39:58.673Z,96836.34
2023-05-20T13:42:25.388Z,96837.72
2023-05-20T13:44:52.116Z,96825.63
2023-05-20T13:47:18.915Z,96827.72
2023-05-20T13:49:45.632Z,96823.34
2023-05-20T13:52:12.339Z,96820.25
2023-05-20T13:54:39.081Z,96819.56
2023-05-20T13:57:08.105Z,96812.56
2023-05-20T13:59:35.165Z,96804.75
2023-05-20T14:02:02.511Z,96825.03
2023-05-20T14:04:31.182Z,96826.19
2023-05-20T14:06:59.304Z,96834.69
2023-05-20T14:09:26.390Z,96830.34
2023-05-20T14:11:53.233Z,96823.16
2023-05-20T14:14:19.955Z,96816.81
2023-05-20T14:16:47.124Z,96818.66
2023-05-20T14:19:13.822Z,96812.69
2023-05-20T14:21:40.709Z,96810.44
2023-05-20T14:24:07.365Z,96813.31
2023-05-20T14:26:34.664Z,96818.00
2023-05-20T14:29:01.805Z,96817.09
2023-05-20T14:31:28.739Z,96826.13
2023-05-20T14:33:55.466Z,96827.03
2023-05-20T14:36:22.404Z,96824.13
2023-05-20T14:38:49.749Z,96824.66
2023-05-20T14:41:16.730Z,96825.47
2023-05-20T14:43:43.526Z,96826.06
2023-05-20T14:46:10.530Z,96821.75
2023-05-20T14:48:37.337Z,96822.41
2023-05-20T14:51:04.238Z,96829.44
2023-05-20T14:53:30.988Z,96823.53
2023-05-20T14:55:57.736Z,96822.31
2023-05-20T14:58:24.517Z,96812.78
2023-05-20T15:00:53.131Z,96809.00
2023-05-20T15:03:20.398Z,96805.25
2023-05-20T15:05:47.237Z,96811.41
2023-05-20T15:08:13.986Z,96811.69
2023-05-20T15:10:40.782Z,96816.84
2023-05-20T15:13:07.669Z,96820.28
2023-05-20T15:15:34.440Z,96825.25
2023-05-20T15:18:01.489Z,96817.16
2023-05-20T15:20:28.282Z,96816.50
2023-05-20T15:22:54.996Z,96813.88
2023-05-20T15:25:21.708Z,96813.44
2023-05-20T15:27:48.365Z,96809.75
2023-05-20T15:30:15.658Z,96810.47
2023-05-20T15:32:42.898Z,96817.47
2023-05-20T15:35:09.896Z,96810.38
2023-05-20T15:37:36.518Z,96815.56
2023-05-20T15:40:04.492Z,96817.63
2023-05-20T15:42:31.828Z,96819.88
2023-05-20T15:44:58.610Z,96823.56
2023-05-20T15:47:25.389Z,96822.47
2023-05-20T15:49:52.243Z,96817.13
2023-05-20T15:52:18.861Z,96822.66
2023-05-20T15:54:45.573Z,96813.38
2023-05-20T15:57:12.171Z,96819.94
2023-05-20T15:59:38.958Z,96825.97
2023-05-20T16:02:06.161Z,96819.88
2023-05-20T16:04:33.134Z,96817.56
2023-05-20T16:07:00.165Z,96811.47
2023-05-20T16:09:26.928Z,96814.31
2023-05-20T16:11:53.549Z,96809.78
2023-05-20T16:14:20.519Z,96812.69
2023-05-20T16:16:47.325Z,96811.78
2023-05-20T16:19:14.072Z,96811.50
2023-05-20T16:21:40.735Z,96809.00
2023-05-20T16:24:07.401Z,96813.28
2023-05-20T16:26:34.062Z,96817.78
2023-05-20T16:29:01.253Z,96810.75
2023-05-20T16:31:28.205Z,96813.28
2023-05-20T16:33:55.031Z,96817.25
2023-05-20T16:36:22.014Z,96813.63
2023-05-20T16:38:48.772Z,96814.44
2023-05-20T16:41:16.448Z,96818.34
2023-05-20T16:43:43.244Z,96825.94
2023-05-20T16:46:10.031Z,96826.44
2023-05-20T16:48:36.781Z,96829.72
2023-05-20T16:51:03.451Z,96836.56
2023-05-20T16:53:30.172Z,96833.22
2023-05-20T16:55:56.787Z,96838.16
2023-05-20T16:58:23.544Z,96829.44
2023-05-20T17:00:50.338Z,96836.03
2023-05-20T17:03:18.131Z,96834.25
2023-05-20T17:05:44.922Z,96833.06
2023-05-20T17:08:11.668Z,96838.25
2023-05-20T17:10:38.388Z,96834.16
2023-05-20T17:13:05.356Z,96830.06
2023-05-20T17:15:33.033Z,96838.56
2023-05-20T17:17:59.766Z,96848.41
2023-05-20T17:20:26.604Z,96842.13
2023-05-20T17:22:53.305Z,96838.41
2023-05-20T17:25:20.124Z,96838.75
2023-05-20T17:27:46.847Z,96840.91
2023-05-20T17:30:13.600Z,96841.09
2023-05-20T17:32:40.738Z,96845.25
2023-05-20T17:35:08.316Z,96850.53
2023-05-20T17:37:35.093Z,96850.31
2023-05-20T17:40:01.867Z,96850.31
2023-05-20T17:42:28.541Z,96856.66
2023-05-20T17:44:55.607Z,96848.13
2023-05-20T17:47:22.312Z,96846.13
2023-05-20T17:49:49.042Z,96843.22
2023-05-20T17:52:15.911Z,96847.75
2023-05-20T17:54:42.607Z,96842.53
2023-05-20T17:57:09.326Z,96839.22
2023-05-20T17:59:41.617Z,96836.16
2023-05-20T18:02:08.619Z,96839.47
2023-05-20T18:04:35.481Z,96837.44
2023-05-20T18:07:03.956Z,96842.22
2023-05-20T18:09:30.685Z,96848.53
2023-05-20T18:11:57.415Z,96845.63
2023-05-20T18:14:26.458Z,96849.16
2023-05-20T18:16:54.719Z,96849.09
2023-05-20T18:19:21.619Z,96848.22
2023-05-20T18:21:48.488Z,96853.03
2023-05-20T18:24:16.691Z,96857.69
2023-05-20T18:26:43.560Z,96858.78
2023-05-20T18:29:12.404Z,96872.44
2023-05-20T18:31:40.378Z,96865.25
2023-05-20T18:34:08.096Z,96871.13
2023-05-20T18:36:34.975Z,96865.19
2023-05-20T18:39:01.659Z,96859.97
2023-05-20T18:41:43.185Z,96865.88
2023-05-20T18:44:17.246Z,96874.25
2023-05-20T18:46:43.912Z,96857.97
2023-05-20T18:49:10.718Z,96870.00
2023-05-20T18:51:40.872Z,96861.34
2023-05-20T18:54:07.752Z,96853.97
2023-05-20T18:56:34.678Z,96847.56
2023-05-20T18:59:01.654Z,96847.66
2023-05-20T19:01:28.348Z,96850.91
2023-05-20T19:03:55.064Z,96847.47
2023-05-20T19:06:22.082Z,96854.56
2023-05-20T19:08:49.679Z,96844.91
2023-05-20T19:11:16.449Z,96850.31
2023-05-20T19:13:43.274Z,96852.06
2023-05-20T19:16:09.993Z,96848.47
2023-05-20T19:18:36.916Z,96850.19
2023-05-20T19:21:03.784Z,96853.47
2023-05-20T19:23:30.580Z,96851.13
2023-05-20T19:25:57.284Z,96850.25
2023-05-20T19:28:24.016Z,96844.09
2023-05-20T19:30:50.966Z,96847.34
2023-05-20T19:33:18.269Z,96847.25
2023-05-20T19:35:45.030Z,96840.22
2023-05-20T19:38:12.464Z,96838.88
2023-05-20T19:40:39.161Z,96832.25
2023-05-20T19:43:05.889Z,96824.59
2023-05-20T19:45:32.553Z,96827.44
2023-05-20T19:47:59.387Z,96825.63
2023-05-20T19:50:26.466Z,96823.63
2023-05-20T19:52:53.275Z,96817.31
2023-05-20T19:55:19.925Z,96819.91
2023-05-20T19:57:53.027Z,96818.66
2023-05-20T20:00:21.334Z,96816.31
2023-05-20T20:02:48.817Z,96822.50
2023-05-20T20:05:16.131Z,96817.06
2023-05-20T20:07:43.012Z,96815.41
2023-05-20T20:10:10.745Z,96816.50
2023-05-20T20:12:37.535Z,96809.34
2023-05-20T20:15:04.469Z,96819.50
2023-05-20T20:17:33.463Z,96811.53
2023-05-20T20:20:00.681Z,96814.28
2023-05-20T20:22:27.438Z,96819.22
2023-05-20T20:24:54.095Z,96828.53
2023-05-20T20:27:23.835Z,96831.88
2023-05-20T20:29:51.309Z,96827.47
2023-05-20T20:32:18.065Z,96835.00
2023-05-20T20:34:45.991Z,96837.41
2023-05-20T20:37:14.966Z,96827.75
2023-05-20T20:39:42.117Z,96836.22
2023-05-20T20:42:08.836Z,96839.44
2023-05-20T20:44:35.506Z,96838.13
2023-05-20T20:47:04.102Z,96838.50
2023-05-20T20:49:32.214Z,96841.38
2023-05-20T20:51:59.147Z,96838.50
2023-05-20T20:54:26.478Z,96821.34
2023-05-20T20:56:56.642Z,96835.16
2023-05-20T20:59:26.512Z,96833.41
2023-05-20T21:01:53.829Z,96819.22
2023-05-20T21:04:20.916Z,96817.66
2023-05-20T21:06:47.758Z,96823.88
2023-05-20T21:09:14.777Z,96826.13
2023-05-20T21:11:45.935Z,96821.47
2023-05-20T21:14:13.067Z,96821.13
2023-05-20T21:16:39.872Z,96822.78
2023-05-20T21:19:06.727Z,96816.31
2023-05-20T21:21:33.558Z,96820.59
2023-05-20T21:24:00.311Z,96819.53
2023-05-20T21:26:27.072Z,96816.69
2023-05-20T21:28:53.870Z,96816.19
2023-05-20T21:31:20.737Z,96813.81
2023-05-20T21:33:47.508Z,96815.34
2023-05-20T21:36:14.276Z,96814.03
2023-05-20T21:38:41.102Z,96808.78
2023-05-20T21:41:08.331Z,96818.31
2023-05-20T21:43:36.009Z,96809.38
2023-05-20T21:46:03.057Z,96811.28
2023-05-20T21:48:29.790Z,96815.31
2023-05-20T21:50:56.655Z,96809.97
2023-05-20T21:53:23.257Z,96814.38
2023-05-20T21:55:50.189Z,96813.91
2023-05-20T21:58:16.855Z,96814.03
2023-05-20T22:00:43.688Z,96817.31
2023-05-20T22:03:11.849Z,96814.25
2023-05-20T22:05:38.734Z,96808.16
2023-05-20T22:08:05.681Z,96807.69
2023-05-20T22:10:34.169Z,96804.44
2023-05-20T22:13:02.126Z,96805.03
2023-05-20T22:15:29.080Z,96800.28
2023-05-20T22:17:55.796Z,96805.97
2023-05-20T22:20:22.714Z,96805.28
2023-05-20T22:22:49.385Z,96810.56
2023-05-20T22:25:17.285Z,96807.72
2023-05-20T22:27:44.047Z,96804.00
2023-05-20T22:30:11.841Z,96801.59
2023-05-20T22:32:39.134Z,96800.91
2023-05-20T22:35:06.539Z,96798.16
2023-05-20T22:37:33.508Z,96797.69
2023-05-20T22:40:00.223Z,96791.84
2023-05-20T22:42:26.912Z,96785.91
2023-05-20T22:44:53.648Z,96786.97
2023-05-20T22:47:20.351Z,96782.53
2023-05-20T22:49:47.135Z,96781.44
2023-05-20T22:52:14.422Z,96776.56
2023-05-20T22:54:41.305Z,96773.34
2023-05-20T22:57:08.285Z,96775.81
2023-05-20T22:59:36.661Z,96768.22
2023-05-20T23:02:04.534Z,96770.50
2023-05-20T23:04:31.344Z,96782.03
2023-05-20T23:06:59.460Z,96772.00
2023-05-20T23:09:26.484Z,96771.03
2023-05-20T23:11:53.292Z,96768.88
2023-05-20T23:14:20.231Z,96768.16
2023-05-20T23:16:47.030Z,96765.00
2023-05-20T23:19:13.809Z,96765.56
2023-05-20T23:21:40.655Z,96765.09
2023-05-20T23:24:07.425Z,96755.09
2023-05-20T23:26:37.630Z,96757.13
2023-05-20T23:29:05.230Z,96750.41
2023-05-20T23:31:32.977Z,96753.44
2023-05-20T23:34:01.070Z,96752.34
2023-05-20T23:36:29.057Z,96755.59
2023-05-20T23:38:56.642Z,96754.31
2023-05-20T23:41:23.654Z,96751.75
2023-05-20T23:43:50.779Z,96752.47
2023-05-20T23:46:18.662Z,96750.19
2023-05-20T23:48:48.234Z,96748.63
2023-05-20T23:51:16.362Z,96754.22
2023-05-20T23:53:44.083Z,96754.94
2023-05-20T23:56:10.782Z,96752.53
2023-05-20T23:58:37.533Z,96749.53
